createdAt,value
2018-09-13T00:01:27.436Z,9.43
2018-09-13T00:05:30.005Z,11.83
2018-09-13T00:09:32.589Z,9.47
2018-09-13T00:13:35.230Z,10.07
2018-09-13T00:17:37.975Z,8.53
2018-09-13T00:21:41.028Z,8.13
2018-09-13T00:25:43.614Z,11.90
2018-09-13T00:29:46.308Z,9.43
2018-09-13T00:33:48.899Z,8.37
2018-09-13T00:37:51.515Z,11.27
2018-09-13T00:41:54.750Z,9.33
2018-09-13T00:45:57.375Z,13.93
2018-09-13T00:50:03.826Z,9.57
2018-09-13T00:54:06.718Z,7.40
2018-09-13T00:58:09.342Z,8.90
2018-09-13T01:02:11.893Z,8.90
2018-09-13T01:06:14.613Z,8.57
2018-09-13T01:10:17.224Z,9.50
2018-09-13T01:14:19.858Z,10.90
2018-09-13T01:18:22.461Z,11.70
2018-09-13T01:22:25.036Z,11.20
2018-09-13T01:26:27.593Z,11.60
2018-09-13T01:30:30.247Z,13.13
2018-09-13T01:34:32.869Z,17.57
2018-09-13T01:38:35.452Z,15.20
2018-09-13T01:42:38.034Z,14.90
2018-09-13T01:46:40.611Z,10.73
2018-09-13T01:50:43.206Z,14.57
2018-09-13T01:54:45.809Z,16.50
2018-09-13T01:58:48.484Z,12.97
2018-09-13T02:02:51.123Z,11.23
2018-09-13T02:06:53.689Z,12.03
2018-09-13T02:10:56.286Z,15.80
2018-09-13T02:14:58.852Z,14.53
2018-09-13T02:19:01.465Z,19.30
2018-09-13T02:23:04.222Z,16.07
2018-09-13T02:27:06.796Z,20.07
2018-09-13T02:31:09.387Z,16.23
2018-09-13T02:35:12.037Z,14.87
2018-09-13T02:39:14.616Z,14.87
2018-09-13T02:43:17.224Z,16.97
2018-09-13T02:47:19.879Z,19.40
2018-09-13T02:51:22.494Z,16.80
2018-09-13T02:55:25.113Z,14.03
2018-09-13T02:59:27.722Z,16.00
2018-09-13T03:03:30.649Z,17.07
2018-09-13T03:07:33.161Z,13.33
2018-09-13T03:11:35.739Z,19.80
2018-09-13T03:15:38.523Z,17.37
2018-09-13T03:19:41.259Z,19.37
2018-09-13T03:23:43.878Z,20.60
2018-09-13T03:27:46.636Z,19.27
2018-09-13T03:31:49.260Z,18.30
2018-09-13T03:35:51.886Z,18.90
2018-09-13T03:39:54.477Z,24.80
2018-09-13T03:43:57.037Z,20.03
2018-09-13T03:47:59.594Z,19.87
2018-09-13T03:52:02.160Z,18.67
2018-09-13T03:56:04.902Z,17.73
2018-09-13T04:00:07.854Z,20.93
2018-09-13T04:04:10.497Z,20.37
2018-09-13T04:08:13.352Z,17.73
2018-09-13T04:12:15.933Z,19.00
2018-09-13T04:16:18.540Z,23.73
2018-09-13T04:20:21.157Z,18.53
2018-09-13T04:24:23.792Z,27.03
2018-09-13T04:28:26.407Z,23.80
2018-09-13T04:32:29.007Z,21.67
2018-09-13T04:36:31.672Z,25.77
2018-09-13T04:40:34.296Z,24.70
2018-09-13T04:44:36.947Z,24.10
2018-09-13T04:48:39.579Z,31.70
2018-09-13T04:52:42.108Z,28.03
2018-09-13T04:56:44.787Z,32.87
2018-09-13T05:00:47.443Z,31.83
2018-09-13T05:04:50.035Z,26.27
2018-09-13T05:08:52.615Z,27.73
2018-09-13T05:12:55.318Z,30.63
2018-09-13T05:16:57.924Z,30.37
2018-09-13T05:21:00.590Z,35.47
2018-09-13T05:25:03.516Z,32.10
2018-09-13T05:29:06.102Z,36.03
2018-09-13T05:33:08.791Z,29.27
2018-09-13T05:37:18.090Z,28.80
2018-09-13T05:41:20.701Z,30.90
2018-09-13T05:45:23.307Z,22.87
2018-09-13T05:49:25.917Z,27.40
2018-09-13T05:53:28.482Z,28.70
2018-09-13T05:57:31.110Z,30.77
2018-09-13T06:01:33.718Z,23.93
2018-09-13T06:05:36.325Z,25.87
2018-09-13T06:09:39.505Z,28.20
2018-09-13T06:13:42.284Z,25.37
2018-09-13T06:17:44.793Z,25.07
2018-09-13T06:21:47.421Z,27.17
2018-09-13T06:25:50.022Z,26.83
2018-09-13T06:29:59.462Z,28.20
2018-09-13T06:34:02.069Z,31.43
2018-09-13T06:38:04.690Z,29.40
2018-09-13T06:42:21.208Z,30.30
2018-09-13T06:46:24.185Z,30.97
2018-09-13T06:50:32.699Z,34.33
2018-09-13T06:54:35.391Z,36.87
2018-09-13T06:58:38.156Z,33.77
2018-09-13T07:02:40.730Z,30.97
2018-09-13T07:06:44.401Z,30.23
2018-09-13T07:10:47.125Z,29.57
2018-09-13T07:14:49.834Z,30.67
2018-09-13T07:18:52.414Z,27.70
2018-09-13T07:22:55.037Z,31.60
2018-09-13T07:26:57.686Z,28.73
2018-09-13T07:31:00.406Z,30.90
2018-09-13T07:35:03.071Z,28.87
2018-09-13T07:39:11.088Z,28.60
2018-09-13T07:43:13.746Z,27.13
2018-09-13T07:47:16.397Z,25.33
2018-09-13T07:51:19.090Z,21.17
2018-09-13T07:55:21.714Z,23.40
2018-09-13T07:59:24.281Z,18.63
2018-09-13T08:03:26.878Z,15.63
2018-09-13T08:07:29.450Z,22.33
2018-09-13T08:11:32.015Z,24.53
2018-09-13T08:15:35.673Z,14.07
2018-09-13T08:19:38.252Z,13.73
2018-09-13T08:23:40.889Z,17.67
2018-09-13T08:27:43.533Z,14.80
2018-09-13T08:31:46.176Z,15.57
2018-09-13T08:35:48.901Z,13.67
2018-09-13T08:42:05.889Z,14.57
2018-09-13T08:46:08.582Z,17.80
2018-09-13T08:50:11.442Z,14.13
2018-09-13T08:54:14.230Z,11.17
2018-09-13T08:58:17.001Z,12.40
2018-09-13T09:02:19.594Z,12.90
2018-09-13T09:06:22.293Z,14.43
2018-09-13T09:10:24.872Z,10.40
2018-09-13T09:14:28.226Z,13.17
2018-09-13T09:18:30.920Z,17.27
2018-09-13T09:22:34.563Z,9.33
2018-09-13T09:26:37.274Z,13.53
2018-09-13T09:30:40.116Z,12.43
2018-09-13T09:34:42.717Z,12.43
2018-09-13T09:38:45.345Z,12.03
2018-09-13T09:42:48.008Z,13.37
2018-09-13T09:46:50.625Z,13.30
2018-09-13T09:50:53.981Z,13.00
2018-09-13T09:54:58.026Z,15.50
2018-09-13T09:59:00.688Z,15.13
2018-09-13T10:03:03.484Z,13.50
2018-09-13T10:07:06.100Z,12.13
2018-09-13T10:11:08.726Z,14.53
2018-09-13T10:15:16.897Z,13.10
2018-09-13T10:19:25.005Z,19.73
2018-09-13T10:23:33.112Z,15.17
2018-09-13T10:27:41.265Z,19.77
2018-09-13T10:31:49.453Z,17.83
2018-09-13T10:35:57.888Z,15.07
2018-09-13T10:40:05.975Z,19.23
2018-09-13T10:44:14.155Z,17.27
2018-09-13T10:48:22.369Z,17.30
2018-09-13T10:52:26.609Z,17.93
2018-09-13T10:56:29.494Z,17.53
2018-09-13T11:00:32.116Z,15.50
2018-09-13T11:04:35.547Z,18.10
2018-09-13T11:08:38.202Z,14.33
2018-09-13T11:12:46.426Z,11.67
2018-09-13T11:16:49.121Z,14.93
2018-09-13T11:20:51.776Z,13.17
2018-09-13T11:24:54.380Z,12.93
2018-09-13T11:28:57.295Z,11.30
2018-09-13T11:32:59.869Z,13.23
2018-09-13T11:37:02.486Z,11.70
2018-09-13T11:41:05.399Z,14.50
2018-09-13T11:45:08.528Z,12.17
2018-09-13T11:49:11.109Z,9.70
2018-09-13T11:53:13.738Z,9.97
2018-09-13T11:57:16.337Z,12.30
2018-09-13T12:01:18.983Z,12.43
2018-09-13T12:05:21.646Z,10.77
2018-09-13T12:09:24.393Z,8.23
2018-09-13T12:13:26.828Z,10.90
2018-09-13T12:17:29.423Z,10.60
2018-09-13T12:21:31.994Z,9.17
2018-09-13T12:25:34.524Z,14.90
2018-09-13T12:29:37.115Z,10.33
2018-09-13T12:33:39.751Z,6.97
2018-09-13T12:37:42.356Z,9.07
2018-09-13T12:41:44.985Z,7.70
2018-09-13T12:45:47.628Z,10.40
2018-09-13T12:49:50.376Z,7.53
2018-09-13T12:53:52.982Z,9.07
2018-09-13T12:57:55.596Z,8.03
2018-09-13T13:01:58.667Z,8.27
2018-09-13T13:06:01.289Z,9.13
2018-09-13T13:10:03.987Z,8.37
2018-09-13T13:14:06.667Z,8.70
2018-09-13T13:18:09.497Z,10.00
2018-09-13T13:22:12.042Z,9.93
2018-09-13T13:26:14.575Z,10.87
2018-09-13T13:30:17.148Z,8.87
2018-09-13T13:34:19.720Z,8.93
2018-09-13T13:38:22.279Z,9.87
2018-09-13T13:42:24.828Z,7.83
2018-09-13T13:46:27.539Z,9.70
2018-09-13T13:50:30.131Z,9.00
2018-09-13T13:54:32.726Z,8.03
2018-09-13T13:58:35.274Z,8.60
2018-09-13T14:02:37.812Z,9.20
2018-09-13T14:06:41.438Z,10.20
2018-09-13T14:10:44.006Z,9.27
2018-09-13T14:14:46.548Z,10.70
2018-09-13T14:18:49.106Z,11.10
2018-09-13T14:22:51.624Z,7.27
2018-09-13T14:26:54.183Z,12.73
2018-09-13T14:30:56.727Z,12.53
2018-09-13T14:34:59.291Z,10.73
2018-09-13T14:39:01.996Z,11.63
2018-09-13T14:43:11.241Z,9.37
2018-09-13T14:47:13.820Z,10.90
2018-09-13T14:51:16.403Z,12.37
2018-09-13T14:55:18.980Z,12.37
2018-09-13T14:59:21.518Z,8.73
2018-09-13T15:03:24.073Z,9.87
2018-09-13T15:07:26.807Z,7.33
2018-09-13T15:11:29.328Z,10.40
2018-09-13T15:15:31.945Z,9.20
2018-09-13T15:19:34.700Z,8.33
2018-09-13T15:23:37.265Z,10.80
2018-09-13T15:27:42.110Z,10.50
2018-09-13T15:31:44.612Z,6.47
2018-09-13T15:35:47.285Z,11.33
2018-09-13T15:39:49.884Z,12.83
2018-09-13T15:43:53.045Z,10.77
2018-09-13T15:47:55.676Z,10.93
2018-09-13T15:51:58.210Z,7.10
2018-09-13T15:56:01.190Z,9.80
2018-09-13T16:00:04.372Z,11.33
2018-09-13T16:04:07.469Z,11.83
2018-09-13T16:08:10.789Z,8.87
2018-09-13T16:12:13.802Z,12.27
2018-09-13T16:16:17.185Z,11.03
2018-09-13T16:20:19.683Z,9.90
2018-09-13T16:24:22.198Z,9.77
2018-09-13T16:28:24.783Z,11.63
2018-09-13T16:32:27.439Z,11.47
2018-09-13T16:36:30.847Z,10.23
2018-09-13T16:40:38.855Z,11.43
2018-09-13T16:44:47.287Z,8.60
2018-09-13T16:48:49.962Z,9.50
2018-09-13T16:52:52.687Z,10.97
2018-09-13T16:56:56.313Z,18.10
2018-09-13T17:00:58.912Z,14.53
2018-09-13T17:05:01.879Z,7.60
2018-09-13T17:09:07.695Z,11.73
2018-09-13T17:13:10.540Z,10.07
2018-09-13T17:17:13.317Z,11.07
2018-09-13T17:21:16.267Z,12.13
2018-09-13T17:25:18.938Z,11.20
2018-09-13T17:29:21.541Z,12.33
2018-09-13T17:33:24.129Z,9.33
2018-09-13T17:37:26.713Z,11.67
2018-09-13T17:41:29.425Z,23.37
2018-09-13T17:45:32.061Z,14.83
2018-09-13T17:49:34.690Z,8.33
2018-09-13T17:53:37.695Z,13.00
2018-09-13T17:57:40.372Z,11.90
2018-09-13T18:01:43.035Z,10.60
2018-09-13T18:05:45.675Z,8.13
2018-09-13T18:09:48.286Z,20.27
2018-09-13T18:13:51.003Z,9.47
2018-09-13T18:17:53.592Z,11.57
2018-09-13T18:21:56.220Z,14.70
2018-09-13T18:25:58.865Z,9.67
2018-09-13T18:30:01.610Z,19.20
2018-09-13T18:34:04.225Z,10.80
2018-09-13T18:38:07.064Z,14.10
2018-09-13T18:42:09.795Z,13.57
2018-09-13T18:46:12.427Z,11.80
2018-09-13T18:50:15.196Z,13.03
2018-09-13T18:54:18.199Z,10.80
2018-09-13T18:58:20.969Z,12.87
2018-09-13T19:02:23.742Z,9.67
2018-09-13T19:06:26.549Z,14.80
2018-09-13T19:10:29.268Z,13.23
2018-09-13T19:14:32.075Z,12.47
2018-09-13T19:18:35.327Z,15.17
2018-09-13T19:22:38.766Z,13.57
2018-09-13T19:26:42.648Z,12.87
2018-09-13T19:30:46.251Z,14.83
2018-09-13T19:34:49.430Z,11.63
2018-09-13T19:38:52.132Z,14.43
2018-09-13T19:42:54.963Z,17.30
2018-09-13T19:46:57.655Z,16.77
2018-09-13T19:51:00.806Z,17.17
2018-09-13T19:55:04.418Z,19.93
2018-09-13T19:59:07.283Z,16.60
2018-09-13T20:03:09.930Z,14.03
2018-09-13T20:07:13.001Z,17.50
2018-09-13T20:11:19.486Z,17.33
2018-09-13T20:15:23.138Z,14.17
2018-09-13T20:19:25.872Z,21.50
2018-09-13T20:23:28.472Z,18.23
2018-09-13T20:27:31.106Z,17.00
2018-09-13T20:31:33.956Z,19.13
2018-09-13T20:35:37.034Z,20.87
2018-09-13T20:39:39.677Z,19.60
2018-09-13T20:43:42.367Z,16.60
2018-09-13T20:47:46.151Z,21.83
2018-09-13T20:51:48.818Z,17.83
2018-09-13T20:55:51.532Z,15.80
2018-09-13T20:59:54.119Z,15.30
2018-09-13T21:03:56.847Z,13.97
2018-09-13T21:08:13.822Z,15.10
2018-09-13T21:12:17.580Z,19.13
2018-09-13T21:16:25.168Z,17.93
2018-09-13T21:20:32.457Z,18.23
2018-09-13T21:24:47.658Z,17.07
2018-09-13T21:28:53.889Z,18.17
2018-09-13T21:32:56.622Z,17.97
2018-09-13T21:36:59.371Z,18.40
2018-09-13T21:41:01.935Z,20.90
2018-09-13T21:45:05.394Z,21.27
2018-09-13T21:49:08.134Z,18.07
2018-09-13T21:53:10.760Z,15.87
2018-09-13T21:57:13.446Z,14.33
2018-09-13T22:01:16.182Z,9.03
2018-09-13T22:05:19.017Z,7.90
2018-09-13T22:09:22.466Z,9.03
2018-09-13T22:13:29.644Z,11.17
2018-09-13T22:17:32.285Z,7.63
2018-09-13T22:21:34.940Z,11.37
2018-09-13T22:25:37.620Z,7.10
2018-09-13T22:29:40.257Z,6.77
2018-09-13T22:33:42.948Z,10.10
2018-09-13T22:37:45.576Z,10.07
2018-09-13T22:41:48.247Z,9.77
2018-09-13T22:45:50.871Z,8.17
2018-09-13T22:49:53.658Z,8.97
2018-09-13T22:53:56.277Z,10.70
2018-09-13T22:57:58.940Z,9.37
2018-09-13T23:02:01.594Z,9.40
2018-09-13T23:06:04.323Z,8.03
2018-09-13T23:10:06.941Z,9.27
2018-09-13T23:14:09.662Z,13.17
2018-09-13T23:18:12.290Z,7.97
2018-09-13T23:22:14.872Z,8.33
2018-09-13T23:26:17.542Z,10.23
2018-09-13T23:30:20.148Z,13.43
2018-09-13T23:34:22.715Z,8.93
2018-09-13T23:38:25.330Z,9.57
2018-09-13T23:42:27.887Z,9.67
2018-09-13T23:46:30.523Z,7.57
2018-09-13T23:50:33.318Z,10.67
2018-09-13T23:54:35.944Z,8.10
2018-09-13T23:58:38.523Z,7.33
